Time;durP1;ratioP1;P1;durP2;ratioP2;P2;SDS_P1;SDS_P2;PMS_P1;PMS_P2;Temp;Humidity;BMP_temperature;BMP_pressure;BME280_temperature;BME280_humidity;BME280_pressure;Samples;Min_cycle;Max_cycle;Signal;HPM_P1;HPM_P2
2023/05/11 04:00:53;;;;;;;1.90;0.80;;;13.90;82.20;;;;;;5908934;22;20527;-77
2023/05/11 04:03:20;;;;;;;2.27;0.83;;;14.00;82.10;;;;;;5033910;28;20443;-78
2023/05/11 04:05:47;;;;;;;1.77;0.80;;;14.00;82.20;;;;;;5033823;28;20447;-77
2023/05/11 04:08:14;;;;;;;1.70;0.80;;;14.10;81.90;;;;;;5033728;28;20502;-77
2023/05/11 04:10:40;;;;;;;2.23;0.80;;;14.20;81.70;;;;;;5033924;28;20440;-77
2023/05/11 04:13:07;;;;;;;2.43;0.90;;;14.20;81.50;;;;;;5033840;28;20448;-77
2023/05/11 04:15:36;;;;;;;1.80;0.80;;;14.30;81.40;;;;;;5034413;28;20542;-77
2023/05/11 04:18:04;;;;;;;1.67;0.90;;;14.30;81.30;;;;;;5034073;28;20456;-78
2023/05/11 04:20:31;;;;;;;1.83;0.80;;;14.30;81.20;;;;;;5033538;28;20501;-78
2023/05/11 04:22:57;;;;;;;3.07;0.90;;;14.40;81.00;;;;;;5033857;28;20448;-78
2023/05/11 04:25:24;;;;;;;1.70;0.83;;;14.30;81.10;;;;;;5033387;28;20447;-78
2023/05/11 04:27:51;;;;;;;1.70;0.80;;;14.30;81.20;;;;;;5033603;28;20843;-77
2023/05/11 04:30:19;;;;;;;1.60;0.80;;;14.30;81.30;;;;;;5034772;28;20513;-77
2023/05/11 04:32:46;;;;;;;1.60;0.70;;;14.40;81.10;;;;;;5037860;28;20455;-78
2023/05/11 04:35:14;;;;;;;2.63;0.70;;;14.40;80.70;;;;;;5037745;28;20474;-78
2023/05/11 04:37:40;;;;;;;1.67;0.87;;;14.40;80.60;;;;;;5038772;28;20443;-78
2023/05/11 04:40:08;;;;;;;2.00;0.90;;;14.40;80.40;;;;;;5038349;28;20485;-79
2023/05/11 04:42:35;;;;;;;2.50;1.07;;;14.50;80.40;;;;;;5039545;28;20471;-79
2023/05/11 04:45:02;;;;;;;1.70;0.73;;;14.40;80.30;;;;;;5038180;28;20451;-79
2023/05/11 04:47:28;;;;;;;1.80;0.80;;;14.50;80.40;;;;;;5038950;28;20478;-77
2023/05/11 04:49:55;;;;;;;2.50;0.90;;;14.50;80.50;;;;;;5037959;28;20893;-78
2023/05/11 04:52:23;;;;;;;1.50;0.70;;;14.50;80.50;;;;;;5037570;28;20483;-77
2023/05/11 04:54:50;;;;;;;1.60;0.70;;;14.60;80.20;;;;;;5036982;28;20889;-78
2023/05/11 04:57:16;;;;;;;1.83;0.70;;;14.60;80.10;;;;;;5037655;28;20584;-77
2023/05/11 04:59:43;;;;;;;1.50;0.70;;;14.70;80.00;;;;;;5037780;28;20636;-76
2023/05/11 05:02:10;;;;;;;1.97;0.90;;;14.70;79.90;;;;;;5036446;28;20541;-77
2023/05/11 05:04:36;;;;;;;1.70;0.90;;;14.70;79.70;;;;;;5036332;28;20497;-77
2023/05/11 05:07:03;;;;;;;1.73;0.70;;;14.80;79.70;;;;;;5036163;28;20475;-76
2023/05/11 05:09:31;;;;;;;1.63;0.80;;;14.80;79.90;;;;;;5036287;28;20443;-76
2023/05/11 05:11:57;;;;;;;1.60;0.80;;;14.80;80.00;;;;;;5036055;28;20467;-75
2023/05/11 05:14:24;;;;;;;1.70;0.90;;;14.90;79.60;;;;;;5036032;28;20455;-76
2023/05/11 05:16:53;;;;;;;1.50;0.70;;;14.90;79.50;;;;;;5036065;28;20451;-75
2023/05/11 05:19:19;;;;;;;1.90;0.80;;;14.90;79.40;;;;;;5036052;28;20824;-75
2023/05/11 05:21:47;;;;;;;2.10;0.60;;;14.90;79.10;;;;;;5035601;28;20980;-75
2023/05/11 05:24:13;;;;;;;2.47;0.83;;;14.80;79.40;;;;;;5035939;28;20460;-76
2023/05/11 05:26:41;;;;;;;2.67;0.70;;;14.80;79.50;;;;;;5035569;28;20533;-75
2023/05/11 05:29:08;;;;;;;2.40;0.80;;;14.80;79.30;;;;;;5035914;28;20945;-76
2023/05/11 05:31:35;;;;;;;2.13;0.80;;;14.90;79.30;;;;;;5035350;28;21042;-74
2023/05/11 05:34:02;;;;;;;2.10;0.83;;;15.00;79.20;;;;;;5035681;28;20455;-77
2023/05/11 05:36:28;;;;;;;1.87;0.80;;;15.00;79.40;;;;;;5035649;28;20454;-78
2023/05/11 05:38:55;;;;;;;1.60;0.70;;;15.00;79.60;;;;;;5036230;28;20502;-77
2023/05/11 05:41:22;;;;;;;1.50;0.70;;;15.10;79.30;;;;;;5034757;28;20517;-77
2023/05/11 05:43:50;;;;;;;2.00;0.70;;;15.10;78.80;;;;;;5035690;28;20448;-77
2023/05/11 05:46:17;;;;;;;1.70;0.80;;;15.10;78.70;;;;;;5035218;28;20795;-77
2023/05/11 05:48:44;;;;;;;1.60;0.80;;;15.20;78.90;;;;;;5035646;28;20451;-77
2023/05/11 05:51:11;;;;;;;1.50;0.70;;;15.10;78.80;;;;;;5035683;28;20830;-77
2023/05/11 05:53:37;;;;;;;1.90;0.70;;;15.10;78.90;;;;;;5035715;28;20443;-77
2023/05/11 05:56:04;;;;;;;1.60;0.70;;;15.20;78.80;;;;;;5035680;28;20541;-77
2023/05/11 05:58:31;;;;;;;1.60;0.90;;;15.30;78.90;;;;;;5035643;28;20448;-77
2023/05/11 06:01:00;;;;;;;1.53;0.70;;;15.30;78.40;;;;;;5035494;28;20579;-77
2023/05/11 06:03:26;;;;;;;2.00;0.73;;;15.30;78.30;;;;;;5036258;28;20462;-77
2023/05/11 06:05:53;;;;;;;1.80;0.80;;;15.10;79.20;;;;;;5035322;28;20451;-77
2023/05/11 06:08:20;;;;;;;2.33;0.90;;;15.20;78.80;;;;;;5035038;28;20550;-77
2023/05/11 06:10:46;;;;;;;1.50;0.70;;;15.30;78.70;;;;;;5034995;28;20468;-77
2023/05/11 06:13:13;;;;;;;2.50;0.90;;;15.30;78.30;;;;;;5035025;28;20458;-77
2023/05/11 06:15:40;;;;;;;2.00;0.80;;;15.40;78.30;;;;;;5034900;28;20513;-77
2023/05/11 06:18:08;;;;;;;1.73;0.80;;;15.50;77.70;;;;;;5035498;28;20562;-77
2023/05/11 06:20:35;;;;;;;1.73;0.90;;;15.50;77.20;;;;;;5034832;28;20502;-77
2023/05/11 06:23:01;;;;;;;1.73;0.80;;;15.50;76.80;;;;;;5034865;28;20513;-77
2023/05/11 06:25:28;;;;;;;2.00;0.90;;;15.50;77.30;;;;;;5034837;28;20460;-77
2023/05/11 06:27:55;;;;;;;1.80;0.80;;;15.50;77.20;;;;;;5034658;28;20840;-77
2023/05/11 06:30:21;;;;;;;1.60;0.83;;;15.60;77.20;;;;;;5034565;28;20447;-77
2023/05/11 06:32:48;;;;;;;2.13;0.90;;;15.60;77.40;;;;;;5034527;28;20451;-77
2023/05/11 06:35:16;;;;;;;1.70;0.87;;;15.70;76.90;;;;;;5034503;28;20968;-77
2023/05/11 06:37:43;;;;;;;1.60;0.80;;;15.60;76.70;;;;;;5034234;28;20789;-76
2023/05/11 06:40:10;;;;;;;1.67;0.80;;;15.60;76.60;;;;;;5034530;28;20501;-77
2023/05/11 06:42:36;;;;;;;1.70;0.83;;;15.50;76.80;;;;;;5034105;28;20968;-77
2023/05/11 06:45:03;;;;;;;1.93;0.90;;;15.50;76.70;;;;;;5034136;28;21133;-76
2023/05/11 06:47:30;;;;;;;2.00;1.13;;;15.50;76.90;;;;;;5034223;28;21003;-77
2023/05/11 06:49:57;;;;;;;1.77;0.87;;;15.40;77.50;;;;;;5034726;28;20527;-77
2023/05/11 06:52:25;;;;;;;2.10;0.80;;;15.10;77.70;;;;;;5034330;28;20503;-78
2023/05/11 06:54:52;;;;;;;4.20;1.20;;;15.00;78.20;;;;;;5034279;28;20467;-76
2023/05/11 06:57:19;;;;;;;1.70;0.80;;;15.10;78.20;;;;;;5033967;28;20481;-76
2023/05/11 06:59:45;;;;;;;1.87;1.07;;;15.00;78.00;;;;;;5034165;28;20447;-76
2023/05/11 07:02:12;;;;;;;1.90;1.07;;;15.10;78.30;;;;;;5033820;28;20502;-76
2023/05/11 07:04:38;;;;;;;2.30;1.00;;;15.20;78.50;;;;;;5034076;28;20482;-77
2023/05/11 07:07:05;;;;;;;1.90;1.00;;;15.10;77.80;;;;;;5033869;28;20483;-77
2023/05/11 07:09:33;;;;;;;2.10;0.90;;;15.10;77.60;;;;;;5034039;28;20450;-77
2023/05/11 07:12:00;;;;;;;2.70;1.07;;;15.20;77.70;;;;;;5033876;28;20594;-77
2023/05/11 07:14:26;;;;;;;2.43;0.83;;;15.30;78.20;;;;;;5033906;28;20447;-79
2023/05/11 07:16:53;;;;;;;2.87;1.00;;;15.30;78.20;;;;;;5033910;28;20584;-77
2023/05/11 07:19:20;;;;;;;1.70;0.90;;;15.40;77.80;;;;;;5033632;28;20436;-77
2023/05/11 07:21:47;;;;;;;1.80;0.87;;;15.50;78.00;;;;;;5033693;28;20590;-77
2023/05/11 07:24:13;;;;;;;1.70;0.90;;;15.60;77.60;;;;;;5033961;28;20455;-77
2023/05/11 07:26:41;;;;;;;2.23;0.97;;;15.60;77.20;;;;;;5033575;28;20451;-76
2023/05/11 07:29:08;;;;;;;2.10;1.00;;;15.60;77.40;;;;;;5033688;28;20505;-77
2023/05/11 07:31:35;;;;;;;1.63;0.80;;;15.70;77.50;;;;;;5033442;28;20467;-77
2023/05/11 07:34:03;;;;;;;1.63;0.80;;;15.50;76.90;;;;;;5033530;28;20447;-77
2023/05/11 07:36:29;;;;;;;1.70;0.90;;;15.40;76.80;;;;;;5033439;28;20463;-77
2023/05/11 07:38:58;;;;;;;2.07;0.80;;;15.50;76.20;;;;;;5033667;28;20526;-77
2023/05/11 07:41:25;;;;;;;1.70;0.93;;;15.30;76.60;;;;;;5033039;28;20973;-77
2023/05/11 07:43:54;;;;;;;1.60;0.80;;;15.40;76.30;;;;;;5033490;28;20451;-77
2023/05/11 07:46:20;;;;;;;1.60;0.90;;;15.40;76.20;;;;;;5033471;28;20455;-77
2023/05/11 07:48:47;;;;;;;1.60;0.80;;;15.50;76.70;;;;;;5034011;28;20486;-77
2023/05/11 07:51:14;;;;;;;1.97;0.80;;;15.50;77.00;;;;;;5033562;28;20472;-77
2023/05/11 07:53:40;;;;;;;1.80;0.87;;;15.60;77.20;;;;;;5033561;28;20534;-76
2023/05/11 07:56:08;;;;;;;1.70;0.87;;;15.60;77.10;;;;;;5033568;28;20497;-77
2023/05/11 07:58:35;;;;;;;1.90;0.70;;;15.40;76.30;;;;;;5033312;28;20538;-76
2023/05/11 08:01:03;;;;;;;1.60;0.60;;;15.30;77.70;;;;;;5033083;28;20529;-77
2023/05/11 08:03:30;;;;;;;1.63;0.80;;;15.30;76.40;;;;;;5033430;28;20470;-76
2023/05/11 08:05:57;;;;;;;1.73;0.90;;;15.20;76.40;;;;;;5035853;28;20455;-76
2023/05/11 08:08:24;;;;;;;2.77;0.90;;;15.20;77.30;;;;;;5037541;28;20487;-76
2023/05/11 08:10:51;;;;;;;1.70;0.87;;;15.40;77.60;;;;;;5037608;28;20493;-76
2023/05/11 08:13:18;;;;;;;1.70;0.70;;;15.60;77.50;;;;;;5037428;28;20531;-76
2023/05/11 08:15:45;;;;;;;1.70;0.70;;;15.60;76.90;;;;;;5037598;28;20448;-76
2023/05/11 08:18:13;;;;;;;1.70;0.77;;;15.70;76.90;;;;;;5037454;28;20439;-74
2023/05/11 08:20:41;;;;;;;1.57;0.77;;;15.80;76.60;;;;;;5037067;28;20497;-77
2023/05/11 08:23:08;;;;;;;1.90;0.70;;;15.80;75.70;;;;;;5037009;28;20821;-77
2023/05/11 08:25:34;;;;;;;1.60;0.80;;;15.80;75.80;;;;;;5037045;28;20452;-76
2023/05/11 08:28:01;;;;;;;1.80;0.80;;;15.90;76.00;;;;;;5036962;28;20826;-75
2023/05/11 08:30:28;;;;;;;1.80;0.90;;;15.80;75.20;;;;;;5037046;28;20482;-77
2023/05/11 08:32:54;;;;;;;1.70;0.70;;;15.70;75.80;;;;;;5037210;28;20455;-76
2023/05/11 08:35:23;;;;;;;1.77;0.80;;;15.80;75.50;;;;;;5036927;28;20443;-76
2023/05/11 08:37:49;;;;;;;1.60;0.70;;;15.70;75.40;;;;;;5036844;28;20443;-76
2023/05/11 08:40:18;;;;;;;2.93;0.80;;;15.70;75.90;;;;;;5036717;28;20513;-74
2023/05/11 08:42:48;;;;;;;1.60;0.90;;;15.80;76.40;;;;;;5036624;28;20518;-76
2023/05/11 08:45:15;;;;;;;1.70;0.80;;;15.80;76.10;;;;;;5036213;28;20952;-75
2023/05/11 08:47:42;;;;;;;2.30;0.80;;;15.90;75.80;;;;;;5036228;28;20479;-76
2023/05/11 08:50:09;;;;;;;1.73;0.80;;;16.00;75.90;;;;;;5036505;28;20452;-76
2023/05/11 08:52:37;;;;;;;1.50;0.70;;;16.00;76.80;;;;;;5037540;28;20475;-76
2023/05/11 08:55:04;;;;;;;2.77;0.90;;;16.00;77.20;;;;;;5036542;28;20447;-76
2023/05/11 08:57:31;;;;;;;1.63;0.77;;;16.10;76.20;;;;;;5036430;28;20448;-76
2023/05/11 08:59:59;;;;;;;2.23;0.87;;;16.10;75.30;;;;;;5036451;28;20447;-76
2023/05/11 09:02:27;;;;;;;2.53;1.20;;;16.10;75.20;;;;;;5036321;28;20487;-75
2023/05/11 09:04:54;;;;;;;1.63;0.90;;;16.00;75.50;;;;;;5035933;28;20959;-76
2023/05/11 09:07:23;;;;;;;1.90;0.80;;;16.10;75.90;;;;;;5036312;28;20451;-76
2023/05/11 09:09:51;;;;;;;1.90;1.00;;;16.10;76.10;;;;;;5036229;28;20494;-76
2023/05/11 09:12:18;;;;;;;1.70;0.80;;;16.00;76.10;;;;;;5035748;28;20471;-76
2023/05/11 09:14:46;;;;;;;2.40;1.07;;;15.90;76.80;;;;;;5035717;28;20818;-76
2023/05/11 09:17:13;;;;;;;2.10;0.90;;;15.80;76.30;;;;;;5035762;28;20454;-75
2023/05/11 09:19:57;;;;;;;1.67;0.83;;;15.70;76.70;;;;;;5036051;28;20451;-76
2023/05/11 09:22:24;;;;;;;2.87;0.90;;;15.70;77.30;;;;;;5035801;28;20463;-76
2023/05/11 09:24:52;;;;;;;1.70;0.93;;;15.60;77.90;;;;;;5035965;28;20455;-76
2023/05/11 09:27:19;;;;;;;1.60;0.83;;;15.60;77.40;;;;;;5035796;28;20509;-75
2023/05/11 09:29:46;;;;;;;1.80;1.00;;;15.60;77.90;;;;;;5035939;28;20451;-77
2023/05/11 09:32:13;;;;;;;2.90;1.00;;;15.60;77.50;;;;;;5036087;28;20467;-74
2023/05/11 09:34:40;;;;;;;1.80;0.90;;;15.60;77.70;;;;;;5035954;28;20455;-75
2023/05/11 09:37:16;;;;;;;1.80;0.90;;;15.60;78.10;;;;;;5035889;28;20859;-75
2023/05/11 09:39:43;;;;;;;2.17;1.20;;;15.60;78.80;;;;;;5035794;28;20439;-75
2023/05/11 09:42:15;;;;;;;2.20;1.27;;;15.60;78.10;;;;;;5035722;28;20471;-75
2023/05/11 09:44:43;;;;;;;2.07;1.10;;;15.60;78.50;;;;;;5035492;28;20971;-76
2023/05/11 09:47:14;;;;;;;1.67;1.00;;;15.60;78.50;;;;;;5035648;28;20475;-75
2023/05/11 09:49:42;;;;;;;2.20;1.00;;;15.60;78.50;;;;;;5035355;28;20484;-75
2023/05/11 09:52:09;;;;;;;2.23;1.00;;;15.60;78.80;;;;;;5035025;28;21007;-75
2023/05/11 09:54:42;;;;;;;1.97;0.90;;;15.70;78.50;;;;;;5035621;28;20455;-75
2023/05/11 09:57:24;;;;;;;2.33;1.03;;;15.70;78.20;;;;;;5035174;28;20814;-75
2023/05/11 09:59:51;;;;;;;3.00;1.00;;;15.80;77.90;;;;;;5035436;28;20467;-76
2023/05/11 10:02:20;;;;;;;1.70;0.80;;;15.80;78.40;;;;;;5035191;28;20486;-75
2023/05/11 10:04:47;;;;;;;2.80;1.33;;;15.90;78.80;;;;;;5035110;28;20444;-75
2023/05/11 10:07:24;;;;;;;1.63;0.80;;;15.90;78.10;;;;;;5035182;28;20447;-75
2023/05/11 10:09:53;;;;;;;2.23;0.97;;;16.00;78.00;;;;;;5035393;28;20474;-75
2023/05/11 10:12:22;;;;;;;1.90;1.07;;;16.00;78.10;;;;;;5034939;28;20472;-75
2023/05/11 10:14:52;;;;;;;2.37;1.27;;;15.90;78.60;;;;;;5035298;28;20526;-75
2023/05/11 10:17:20;;;;;;;1.60;0.80;;;16.00;78.60;;;;;;5035987;28;20424;-75
2023/05/11 10:19:47;;;;;;;2.47;0.90;;;16.20;78.00;;;;;;5034577;28;20959;-75
2023/05/11 10:22:15;;;;;;;2.10;1.10;;;16.30;77.00;;;;;;5034441;28;20502;-74
2023/05/11 10:24:43;;;;;;;1.60;0.77;;;16.10;77.10;;;;;;5034982;28;20527;-76
2023/05/11 10:27:12;;;;;;;1.70;0.90;;;16.10;77.30;;;;;;5034402;28;20501;-75
2023/05/11 10:29:38;;;;;;;1.60;0.87;;;16.20;77.30;;;;;;5034242;28;20514;-76
2023/05/11 10:32:07;;;;;;;1.70;0.90;;;16.40;77.70;;;;;;5034579;28;20475;-75
2023/05/11 10:34:34;;;;;;;1.60;0.80;;;16.40;76.90;;;;;;5034543;28;20440;-75
2023/05/11 10:37:01;;;;;;;2.50;0.90;;;16.40;76.80;;;;;;5034448;28;20510;-75
2023/05/11 10:39:29;;;;;;;1.60;0.90;;;16.40;77.40;;;;;;5034631;28;20482;-76
2023/05/11 10:42:06;;;;;;;2.03;1.00;;;16.60;76.80;;;;;;5034812;28;20546;-76
2023/05/11 10:44:58;;;;;;;1.80;0.90;;;16.60;77.30;;;;;;5034869;28;20443;-77
2023/05/11 10:47:47;;;;;;;2.40;0.93;;;16.60;76.60;;;;;;5034877;28;20443;-76
2023/05/11 10:50:36;;;;;;;1.90;0.90;;;16.70;77.20;;;;;;5021571;28;20457;-75
2023/05/11 10:53:21;;;;;;;1.50;0.80;;;16.70;76.00;;;;;;5034395;28;20431;-76
2023/05/11 10:56:05;;;;;;;2.20;0.90;;;16.80;75.50;;;;;;5033793;28;20434;-76
2023/05/11 10:58:43;;;;;;;1.60;0.80;;;16.90;73.70;;;;;;5034038;28;20503;-76
2023/05/11 11:01:36;;;;;;;1.70;0.87;;;16.90;73.50;;;;;;5033833;28;20482;-76
2023/05/11 11:04:05;;;;;;;1.60;0.77;;;16.90;73.50;;;;;;5033748;28;20932;-77
2023/05/11 11:06:33;;;;;;;1.70;0.77;;;16.90;74.00;;;;;;5034198;28;20444;-77
2023/05/11 11:09:01;;;;;;;2.00;1.10;;;17.00;74.00;;;;;;5033866;28;20570;-77
2023/05/11 11:11:29;;;;;;;1.60;0.80;;;16.90;74.80;;;;;;5033806;28;20467;-77
2023/05/11 11:14:02;;;;;;;1.53;0.77;;;16.90;74.10;;;;;;5033948;28;20447;-77
2023/05/11 11:16:29;;;;;;;1.70;0.90;;;16.90;74.40;;;;;;5033701;28;20867;-75
2023/05/11 11:19:33;;;;;;;1.60;0.87;;;16.80;73.90;;;;;;5033217;28;20447;-76
2023/05/11 11:22:02;;;;;;;2.03;0.70;;;17.00;74.20;;;;;;5033231;28;20517;-77
2023/05/11 11:24:44;;;;;;;1.60;0.80;;;17.10;74.30;;;;;;5033400;28;20506;-76
2023/05/11 11:27:11;;;;;;;1.70;0.90;;;17.00;74.00;;;;;;5033760;28;20534;-77
2023/05/11 11:29:38;;;;;;;2.13;0.80;;;17.10;73.00;;;;;;5033588;28;20534;-78
2023/05/11 11:32:24;;;;;;;2.13;0.90;;;17.00;72.90;;;;;;5033507;28;20474;-77
2023/05/11 11:34:51;;;;;;;1.67;0.77;;;17.00;72.50;;;;;;5033518;28;20443;-77
2023/05/11 11:37:21;;;;;;;1.70;0.83;;;17.10;71.20;;;;;;5033162;28;20959;-77
2023/05/11 11:39:49;;;;;;;1.83;0.80;;;17.30;72.20;;;;;;5033420;28;20479;-77
2023/05/11 11:42:17;;;;;;;2.53;0.90;;;17.30;71.10;;;;;;5033328;28;20884;-77
2023/05/11 11:44:45;;;;;;;2.30;0.90;;;17.40;69.90;;;;;;5033484;28;20477;-78
2023/05/11 11:47:15;;;;;;;1.90;0.90;;;17.40;70.80;;;;;;5033452;28;20542;-74
2023/05/11 11:49:43;;;;;;;1.60;0.80;;;17.30;71.50;;;;;;5033444;28;20502;-77
2023/05/11 11:52:14;;;;;;;1.90;0.87;;;17.30;71.70;;;;;;5033580;28;20525;-77
2023/05/11 11:54:45;;;;;;;1.60;0.80;;;17.30;72.70;;;;;;5033477;28;20432;-77
2023/05/11 11:57:45;;;;;;;1.80;0.77;;;17.40;70.10;;;;;;5033285;28;20436;-76
2023/05/11 12:00:20;;;;;;;1.90;0.80;;;17.20;72.30;;;;;;5033241;28;20452;-75
2023/05/11 12:02:46;;;;;;;2.43;1.07;;;17.10;71.90;;;;;;5032941;28;21010;-77
2023/05/11 12:05:17;;;;;;;1.73;0.80;;;17.00;72.00;;;;;;5033229;28;20447;-77
2023/05/11 12:07:45;;;;;;;1.80;0.80;;;17.00;71.20;;;;;;5034002;28;20546;-77
2023/05/11 12:10:16;;;;;;;1.90;0.97;;;17.10;71.60;;;;;;5033201;28;20601;-76
2023/05/11 12:12:45;;;;;;;1.60;0.90;;;17.20;71.60;;;;;;5033104;28;20475;-77
2023/05/11 12:15:24;;;;;;;2.73;1.00;;;17.40;71.30;;;;;;5033034;28;20817;-76
2023/05/11 12:17:51;;;;;;;2.00;0.80;;;17.30;73.10;;;;;;5033169;28;20439;-77
2023/05/11 12:20:19;;;;;;;1.50;0.70;;;17.20;71.20;;;;;;5032704;28;20851;-77
2023/05/11 12:22:47;;;;;;;2.17;0.90;;;17.30;71.10;;;;;;5033219;28;20467;-77
2023/05/11 12:25:17;;;;;;;1.50;0.77;;;17.30;71.60;;;;;;5033022;28;20488;-78
2023/05/11 12:27:53;;;;;;;1.73;0.83;;;17.20;71.70;;;;;;5033026;28;20448;-77
2023/05/11 12:30:22;;;;;;;1.80;0.80;;;17.10;71.30;;;;;;5032833;28;20459;-77
2023/05/11 12:32:49;;;;;;;2.10;0.90;;;16.90;71.80;;;;;;5032845;28;20505;-77
2023/05/11 12:35:22;;;;;;;2.13;0.90;;;17.00;71.20;;;;;;5033158;28;20632;-77
2023/05/11 12:37:48;;;;;;;1.63;0.80;;;17.10;70.40;;;;;;5033004;28;20435;-77
2023/05/11 12:40:17;;;;;;;1.50;0.70;;;17.10;69.80;;;;;;5032873;28;20435;-77
2023/05/11 12:42:50;;;;;;;1.60;0.80;;;17.00;69.40;;;;;;5032452;28;20985;-77
2023/05/11 12:45:18;;;;;;;1.60;0.80;;;16.60;72.10;;;;;;5032811;28;20431;-77
2023/05/11 12:47:44;;;;;;;2.53;1.00;;;16.40;72.60;;;;;;5032791;28;20450;-77
2023/05/11 12:50:11;;;;;;;1.80;0.80;;;16.60;72.10;;;;;;5032740;28;20479;-76
2023/05/11 12:52:38;;;;;;;1.50;0.73;;;16.80;70.40;;;;;;5036019;28;20475;-77
2023/05/11 12:55:05;;;;;;;1.50;0.70;;;16.60;69.90;;;;;;5036707;28;20853;-77
2023/05/11 12:57:33;;;;;;;1.67;0.80;;;16.80;70.50;;;;;;5036747;28;20456;-77
2023/05/11 13:00:09;;;;;;;1.70;0.90;;;16.60;70.60;;;;;;5036519;28;20447;-78
2023/05/11 13:02:43;;;;;;;1.60;0.80;;;16.60;70.30;;;;;;5036282;28;20475;-77
2023/05/11 13:05:12;;;;;;;1.50;0.70;;;16.80;69.60;;;;;;5036523;28;20443;-77
2023/05/11 13:07:39;;;;;;;1.63;0.83;;;17.00;69.40;;;;;;5036303;28;20483;-77
2023/05/11 13:10:06;;;;;;;1.80;0.80;;;16.90;69.70;;;;;;5036238;28;20533;-78
2023/05/11 13:12:34;;;;;;;1.80;0.97;;;16.50;71.00;;;;;;5036271;28;20467;-77
2023/05/11 13:15:07;;;;;;;1.70;0.80;;;16.40;71.50;;;;;;5035821;28;20942;-78
2023/05/11 13:17:35;;;;;;;1.60;0.80;;;16.60;71.60;;;;;;5035789;28;20825;-77
2023/05/11 13:20:18;;;;;;;1.60;0.80;;;16.90;70.80;;;;;;5036028;28;20444;-77
2023/05/11 13:22:45;;;;;;;1.53;0.77;;;17.00;70.50;;;;;;5035854;28;20471;-77
2023/05/11 13:25:16;;;;;;;1.50;0.70;;;17.10;69.40;;;;;;5035851;28;20455;-76
2023/05/11 13:27:44;;;;;;;1.50;0.70;;;17.10;68.80;;;;;;5035922;28;20453;-77
2023/05/11 13:30:11;;;;;;;1.90;0.80;;;17.10;68.90;;;;;;5036719;28;20483;-76
2023/05/11 13:32:38;;;;;;;2.37;1.27;;;16.80;68.50;;;;;;5035795;28;20514;-78
2023/05/11 13:35:06;;;;;;;3.07;0.87;;;16.60;70.60;;;;;;5035909;28;20813;-77
2023/05/11 13:37:33;;;;;;;1.70;0.90;;;16.50;70.10;;;;;;5035930;28;20451;-76
2023/05/11 13:40:00;;;;;;;1.63;0.80;;;16.40;70.70;;;;;;5035821;28;20439;-77
2023/05/11 13:42:28;;;;;;;1.40;0.60;;;16.70;71.30;;;;;;5036208;28;20482;-77
2023/05/11 13:44:56;;;;;;;1.60;0.70;;;16.80;69.40;;;;;;5035459;28;20451;-78
2023/05/11 13:47:22;;;;;;;1.70;0.80;;;17.00;69.50;;;;;;5036125;28;20475;-77
2023/05/11 13:49:49;;;;;;;1.63;0.77;;;17.00;69.50;;;;;;5035527;28;20562;-77
2023/05/11 13:52:16;;;;;;;1.60;0.83;;;17.20;69.10;;;;;;5035000;28;20888;-77
2023/05/11 13:54:42;;;;;;;1.67;0.90;;;17.00;68.20;;;;;;5035932;28;20443;-78
2023/05/11 13:57:09;;;;;;;1.70;0.77;;;16.90;69.60;;;;;;5035272;28;20443;-77
2023/05/11 13:59:36;;;;;;;1.70;0.70;;;16.80;69.80;;;;;;5035161;28;20443;-78
2023/05/11 14:02:04;;;;;;;1.80;0.90;;;16.80;70.20;;;;;;5034328;28;20860;-74
2023/05/11 14:04:31;;;;;;;3.57;1.00;;;16.60;70.80;;;;;;5034258;28;20862;-77
2023/05/11 14:06:58;;;;;;;2.00;1.00;;;16.40;69.80;;;;;;5035002;28;20526;-77
2023/05/11 14:09:25;;;;;;;1.50;0.70;;;16.50;69.90;;;;;;5034923;28;20491;-78
2023/05/11 14:11:52;;;;;;;2.00;0.70;;;16.60;70.10;;;;;;5034975;28;20471;-78
2023/05/11 14:14:18;;;;;;;1.60;0.70;;;16.90;68.30;;;;;;5034567;28;20842;-77
2023/05/11 14:16:45;;;;;;;3.30;0.90;;;17.30;69.20;;;;;;5034729;28;21075;-77
2023/05/11 14:19:14;;;;;;;2.47;1.10;;;17.30;66.30;;;;;;5034970;28;20859;-78
2023/05/11 14:21:40;;;;;;;1.63;0.70;;;17.20;67.10;;;;;;5034851;28;21047;-78
2023/05/11 14:24:07;;;;;;;1.60;0.80;;;17.10;66.90;;;;;;5034815;28;20448;-78
2023/05/11 14:26:34;;;;;;;1.50;0.70;;;16.70;67.10;;;;;;5034820;28;20447;-77
2023/05/11 14:29:01;;;;;;;2.20;0.90;;;16.90;67.10;;;;;;5035289;28;20450;-77
2023/05/11 14:31:28;;;;;;;1.50;0.70;;;16.90;68.20;;;;;;5034534;28;20502;-78
2023/05/11 14:33:55;;;;;;;1.40;0.60;;;17.10;67.70;;;;;;5035025;28;20454;-77
2023/05/11 14:36:23;;;;;;;2.07;0.70;;;17.00;67.40;;;;;;5034559;28;20555;-77
2023/05/11 14:38:50;;;;;;;1.70;0.80;;;16.90;67.60;;;;;;5034582;28;20522;-77
2023/05/11 14:41:17;;;;;;;2.10;0.90;;;16.90;67.20;;;;;;5034418;28;20830;-76
2023/05/11 14:43:44;;;;;;;1.43;0.67;;;17.00;69.50;;;;;;5034477;28;20526;-76
2023/05/11 14:46:11;;;;;;;2.23;0.80;;;17.20;68.20;;;;;;5034257;28;20490;-76
2023/05/11 14:48:38;;;;;;;1.40;0.70;;;17.20;68.10;;;;;;5034917;28;20497;-76
2023/05/11 14:51:05;;;;;;;1.80;0.80;;;17.20;68.00;;;;;;5034182;28;20483;-74
2023/05/11 14:53:33;;;;;;;1.70;0.70;;;17.20;67.30;;;;;;5034265;28;20819;-74
2023/05/11 14:56:00;;;;;;;1.70;0.70;;;16.80;66.60;;;;;;5034239;28;20448;-75
2023/05/11 14:58:26;;;;;;;1.80;1.00;;;16.50;68.10;;;;;;5035154;28;20502;-75
2023/05/11 15:00:53;;;;;;;1.63;0.83;;;16.50;68.00;;;;;;5034118;28;20471;-76
2023/05/11 15:03:20;;;;;;;1.63;0.80;;;16.60;68.80;;;;;;5034432;28;20436;-75
2023/05/11 15:05:46;;;;;;;1.50;0.70;;;16.80;68.50;;;;;;5034384;28;20443;-75
2023/05/11 15:08:13;;;;;;;1.60;0.70;;;17.20;66.70;;;;;;5034159;28;20510;-75
2023/05/11 15:10:41;;;;;;;1.50;0.70;;;17.60;65.60;;;;;;5033916;28;20535;-75
2023/05/11 15:13:09;;;;;;;1.80;0.80;;;17.70;65.60;;;;;;5034036;28;20448;-75
2023/05/11 15:15:35;;;;;;;1.60;0.73;;;17.90;64.50;;;;;;5033756;28;20534;-76
2023/05/11 15:18:02;;;;;;;1.43;0.60;;;17.80;63.70;;;;;;5034088;28;20533;-75
2023/05/11 15:20:29;;;;;;;1.70;0.70;;;17.60;64.10;;;;;;5033716;28;20849;-76
2023/05/11 15:22:55;;;;;;;1.50;0.70;;;17.70;64.90;;;;;;5033965;28;20443;-75
2023/05/11 15:25:22;;;;;;;1.57;0.77;;;17.70;64.80;;;;;;5033900;28;20478;-75
2023/05/11 15:27:50;;;;;;;1.50;0.63;;;17.50;65.50;;;;;;5033854;28;20459;-76
2023/05/11 15:30:17;;;;;;;1.50;0.70;;;17.70;64.30;;;;;;5033242;28;20891;-75
2023/05/11 15:32:44;;;;;;;1.53;0.80;;;17.80;63.80;;;;;;5033302;28;21042;-76
2023/05/11 15:35:10;;;;;;;1.50;0.70;;;18.00;63.70;;;;;;5034181;28;20447;-75
2023/05/11 15:37:37;;;;;;;1.80;0.70;;;18.10;61.80;;;;;;5033678;28;20501;-76
2023/05/11 15:40:05;;;;;;;1.50;0.70;;;18.00;62.20;;;;;;5033545;28;20444;-75
2023/05/11 15:42:32;;;;;;;1.80;0.70;;;17.90;62.20;;;;;;5033562;28;20467;-75
2023/05/11 15:45:00;;;;;;;2.77;1.10;;;17.80;62.30;;;;;;5033842;28;20474;-75
2023/05/11 15:47:26;;;;;;;1.60;0.80;;;17.60;63.00;;;;;;5033740;28;20956;-75
2023/05/11 15:49:53;;;;;;;1.50;0.60;;;17.70;63.20;;;;;;5033631;28;20483;-75
2023/05/11 15:52:20;;;;;;;2.63;1.00;;;17.40;64.10;;;;;;5033662;28;20467;-76
2023/05/11 15:54:46;;;;;;;1.47;0.70;;;17.30;65.00;;;;;;5033825;28;20448;-75
2023/05/11 15:57:13;;;;;;;1.50;0.70;;;17.10;64.60;;;;;;5033493;28;20451;-75
2023/05/11 15:59:40;;;;;;;1.60;0.77;;;17.10;65.10;;;;;;5033536;28;20498;-76
2023/05/11 16:02:07;;;;;;;2.40;0.83;;;17.20;65.10;;;;;;5032925;28;21016;-76
2023/05/11 16:04:34;;;;;;;1.40;0.70;;;17.10;65.90;;;;;;5033126;28;21063;-75
2023/05/11 16:07:01;;;;;;;1.50;0.70;;;17.30;66.00;;;;;;5033381;28;20490;-75
2023/05/11 16:09:28;;;;;;;1.40;0.70;;;17.30;65.40;;;;;;5033394;28;20455;-75
2023/05/11 16:11:55;;;;;;;1.60;0.80;;;17.40;64.40;;;;;;5033530;28;20467;-75
2023/05/11 16:14:21;;;;;;;1.53;0.70;;;17.50;65.20;;;;;;5150076;22;20525;-74
2023/05/11 16:16:48;;;;;;;1.60;0.70;;;17.70;64.50;;;;;;5033148;28;20480;-74
2023/05/11 16:19:16;;;;;;;1.50;0.70;;;17.50;64.60;;;;;;5033134;28;20525;-74
2023/05/11 16:21:43;;;;;;;1.70;0.70;;;17.30;64.40;;;;;;5033052;28;20439;-74
2023/05/11 16:24:10;;;;;;;1.90;0.90;;;17.30;65.20;;;;;;5032966;28;20555;-74
2023/05/11 16:26:36;;;;;;;1.60;0.80;;;17.40;66.00;;;;;;5034871;28;20443;-74
2023/05/11 16:29:03;;;;;;;1.80;0.90;;;17.40;65.50;;;;;;5036983;28;20447;-74
2023/05/11 16:31:30;;;;;;;1.50;0.70;;;17.40;65.00;;;;;;5036795;28;20533;-74
2023/05/11 16:33:56;;;;;;;1.53;0.70;;;17.40;65.30;;;;;;5036989;28;20463;-74
2023/05/11 16:36:24;;;;;;;1.80;0.90;;;17.50;65.80;;;;;;5036924;28;20447;-74
2023/05/11 16:38:51;;;;;;;1.80;0.80;;;17.40;65.90;;;;;;5036807;28;20447;-74
2023/05/11 16:41:17;;;;;;;1.70;0.83;;;17.40;65.50;;;;;;5036792;28;20450;-74
2023/05/11 16:43:45;;;;;;;1.93;0.70;;;17.50;65.70;;;;;;5037518;28;20443;-74
2023/05/11 16:46:12;;;;;;;1.60;0.80;;;17.40;65.70;;;;;;5036713;28;20448;-74
2023/05/11 16:48:38;;;;;;;1.70;0.80;;;17.40;66.30;;;;;;5036575;28;20451;-74
2023/05/11 16:51:05;;;;;;;1.50;0.70;;;17.40;66.70;;;;;;5036514;28;20529;-74
2023/05/11 16:53:33;;;;;;;2.10;1.10;;;17.20;67.00;;;;;;5036604;28;20443;-74